createdAt,value
2017-12-02T00:00:01.022Z,20.03
2017-12-02T00:02:32.907Z,19.37
2017-12-02T00:05:00.877Z,17.77
2017-12-02T00:07:30.449Z,17.80
2017-12-02T00:10:00.393Z,17.97
2017-12-02T00:12:31.427Z,18.17
2017-12-02T00:14:59.196Z,17.97
2017-12-02T00:17:27.963Z,19.37
2017-12-02T00:19:58.610Z,18.10
2017-12-02T00:22:29.083Z,18.27
2017-12-02T00:24:56.836Z,18.27
2017-12-02T00:27:28.294Z,18.30
2017-12-02T00:29:56.999Z,18.97
2017-12-02T00:32:24.908Z,19.37
2017-12-02T00:34:54.116Z,17.83
2017-12-02T00:37:22.897Z,17.50
2017-12-02T00:39:52.413Z,17.73
2017-12-02T00:42:21.015Z,18.10
2017-12-02T00:44:48.896Z,17.47
2017-12-02T00:47:16.671Z,17.57
2017-12-02T00:49:44.505Z,16.70
2017-12-02T00:52:12.939Z,17.47
2017-12-02T00:54:40.624Z,18.40
2017-12-02T00:57:08.549Z,18.77
2017-12-02T00:59:36.217Z,20.13
2017-12-02T01:02:03.895Z,20.57
2017-12-02T01:04:33.824Z,18.97
2017-12-02T01:07:01.680Z,18.47
2017-12-02T01:09:29.327Z,18.53
2017-12-02T01:11:59.681Z,17.37
2017-12-02T01:14:27.425Z,17.93
2017-12-02T01:16:57.149Z,18.50
2017-12-02T01:19:24.983Z,18.50
2017-12-02T01:21:53.639Z,19.47
2017-12-02T01:24:22.124Z,18.47
2017-12-02T01:26:49.893Z,18.50
2017-12-02T01:29:17.617Z,18.10
2017-12-02T01:31:45.299Z,17.87
2017-12-02T01:34:12.969Z,16.73
2017-12-02T01:36:41.525Z,17.27
2017-12-02T01:39:11.521Z,16.40
2017-12-02T01:41:39.230Z,16.90
2017-12-02T01:44:07.685Z,17.40
2017-12-02T01:46:36.054Z,18.40
2017-12-02T01:49:03.727Z,18.17
2017-12-02T01:51:31.388Z,18.40
2017-12-02T01:53:59.050Z,18.33
2017-12-02T01:56:28.493Z,17.43
2017-12-02T01:58:56.421Z,18.77
2017-12-02T02:01:24.079Z,18.93
2017-12-02T02:03:53.640Z,18.30
2017-12-02T02:06:21.564Z,18.30
2017-12-02T02:08:49.425Z,18.67
2017-12-02T02:11:17.403Z,18.20
2017-12-02T02:13:45.083Z,18.23
2017-12-02T02:16:12.751Z,17.60
2017-12-02T02:18:40.451Z,19.10
2017-12-02T02:21:08.254Z,17.80
2017-12-02T02:23:35.980Z,18.00
2017-12-02T02:26:03.633Z,19.10
2017-12-02T02:28:31.291Z,20.50
2017-12-02T02:30:58.958Z,18.30
2017-12-02T02:33:26.652Z,19.20
2017-12-02T02:35:54.386Z,17.57
2017-12-02T02:38:22.047Z,18.57
2017-12-02T02:40:49.863Z,21.47
2017-12-02T02:43:17.541Z,20.60
2017-12-02T02:45:45.452Z,20.37
2017-12-02T02:48:13.315Z,20.20
2017-12-02T02:50:42.021Z,19.23
2017-12-02T02:53:09.766Z,19.67
2017-12-02T02:55:37.492Z,19.10
2017-12-02T02:58:05.191Z,19.13
2017-12-02T03:00:32.953Z,17.80
2017-12-02T03:03:01.505Z,17.83
2017-12-02T03:05:29.176Z,17.77
2017-12-02T03:07:57.613Z,18.40
2017-12-02T03:10:25.296Z,18.47
2017-12-02T03:12:53.973Z,18.10
2017-12-02T03:15:22.478Z,19.10
2017-12-02T03:17:51.759Z,18.97
2017-12-02T03:20:19.491Z,17.73
2017-12-02T03:22:47.261Z,19.17
2017-12-02T03:25:14.916Z,18.27
2017-12-02T03:27:42.579Z,19.10
2017-12-02T03:30:10.654Z,19.93
2017-12-02T03:32:39.397Z,20.07
2017-12-02T03:35:07.039Z,20.53
2017-12-02T03:37:34.703Z,19.83
2017-12-02T03:40:02.346Z,20.60
2017-12-02T03:42:29.995Z,19.10
2017-12-02T03:44:57.667Z,19.63
2017-12-02T03:47:25.532Z,18.80
2017-12-02T03:49:53.440Z,19.23
2017-12-02T03:52:21.279Z,21.13
2017-12-02T03:54:48.973Z,21.47
2017-12-02T03:57:17.413Z,20.90
2017-12-02T03:59:45.114Z,19.87
2017-12-02T04:02:12.849Z,20.77
2017-12-02T04:04:40.502Z,20.67
2017-12-02T04:07:08.371Z,20.30
2017-12-02T04:09:36.040Z,20.80
2017-12-02T04:12:03.842Z,21.73
2017-12-02T04:14:32.256Z,20.67
2017-12-02T04:16:59.942Z,20.70
2017-12-02T04:19:29.346Z,19.97
2017-12-02T04:21:57.092Z,20.40
2017-12-02T04:24:24.807Z,19.70
2017-12-02T04:26:52.506Z,20.40
2017-12-02T04:29:20.198Z,21.57
2017-12-02T04:31:49.743Z,20.23
2017-12-02T04:34:17.452Z,21.53
2017-12-02T04:36:45.650Z,22.00
2017-12-02T04:39:15.148Z,21.10
2017-12-02T04:41:42.848Z,21.33
2017-12-02T04:44:10.536Z,21.23
2017-12-02T04:46:38.198Z,20.40
2017-12-02T04:49:05.858Z,19.33
2017-12-02T04:51:33.597Z,21.53
2017-12-02T04:54:01.328Z,19.80
2017-12-02T04:56:30.795Z,18.90
2017-12-02T04:58:58.537Z,20.37
2017-12-02T05:01:26.188Z,19.97
2017-12-02T05:03:54.006Z,21.73
2017-12-02T05:06:21.666Z,19.77
2017-12-02T05:08:49.330Z,20.43
2017-12-02T05:11:17.786Z,20.57
2017-12-02T05:13:45.544Z,20.90
2017-12-02T05:16:13.176Z,21.40
2017-12-02T05:18:40.882Z,20.93
2017-12-02T05:21:08.558Z,21.17
2017-12-02T05:23:36.214Z,20.80
2017-12-02T05:26:05.604Z,21.27
2017-12-02T05:28:33.353Z,20.23
2017-12-02T05:31:01.320Z,21.40
2017-12-02T05:33:29.010Z,20.07
2017-12-02T05:35:56.672Z,21.57
2017-12-02T05:38:24.350Z,22.33
2017-12-02T05:40:52.016Z,22.97
2017-12-02T05:43:19.712Z,20.97
2017-12-02T05:45:47.440Z,20.40
2017-12-02T05:48:15.092Z,19.27
2017-12-02T05:50:42.752Z,19.60
2017-12-02T05:53:10.515Z,20.33
2017-12-02T05:55:38.310Z,20.67
2017-12-02T05:58:07.710Z,20.67
2017-12-02T06:00:37.872Z,19.37
2017-12-02T06:03:06.324Z,21.00
2017-12-02T06:05:33.989Z,20.10
2017-12-02T06:08:01.712Z,21.70
2017-12-02T06:10:31.648Z,20.17
2017-12-02T06:12:59.286Z,20.90
2017-12-02T06:15:27.715Z,22.80
2017-12-02T06:17:56.198Z,21.27
2017-12-02T06:20:23.902Z,19.30
2017-12-02T06:22:53.337Z,21.53
2017-12-02T06:25:23.615Z,21.00
2017-12-02T06:27:54.946Z,21.77
2017-12-02T06:30:22.654Z,20.40
2017-12-02T06:32:50.387Z,21.97
2017-12-02T06:35:18.813Z,19.97
2017-12-02T06:37:46.457Z,20.37
2017-12-02T06:40:14.888Z,21.17
2017-12-02T06:42:44.306Z,21.97
2017-12-02T06:45:12.804Z,22.00
2017-12-02T06:47:41.447Z,21.53
2017-12-02T06:50:09.152Z,20.20
2017-12-02T06:52:39.462Z,21.33
2017-12-02T06:55:08.267Z,22.07
2017-12-02T06:57:37.608Z,21.70
2017-12-02T07:00:05.354Z,24.87
2017-12-02T07:02:33.826Z,25.17
2017-12-02T07:05:01.625Z,25.27
2017-12-02T07:07:31.416Z,23.90
2017-12-02T07:10:01.831Z,21.37
2017-12-02T07:12:31.780Z,21.23
2017-12-02T07:14:59.873Z,22.47
2017-12-02T07:17:27.754Z,24.17
2017-12-02T07:19:55.455Z,24.50
2017-12-02T07:22:23.175Z,24.80
2017-12-02T07:24:50.869Z,26.10
2017-12-02T07:27:21.137Z,25.17
2017-12-02T07:29:48.922Z,22.93
2017-12-02T07:32:19.252Z,24.70
2017-12-02T07:34:46.985Z,27.60
2017-12-02T07:37:16.567Z,24.47
2017-12-02T07:39:44.304Z,21.53
2017-12-02T07:42:14.729Z,21.03
2017-12-02T07:44:45.124Z,21.40
2017-12-02T07:47:13.205Z,22.03
2017-12-02T07:49:40.909Z,22.10
2017-12-02T07:52:08.649Z,22.70
2017-12-02T07:54:36.288Z,21.67
2017-12-02T07:57:05.655Z,22.77
2017-12-02T07:59:35.046Z,23.77
2017-12-02T08:02:02.780Z,22.40
2017-12-02T08:04:30.484Z,24.93
2017-12-02T08:06:58.242Z,21.63
2017-12-02T08:09:27.744Z,21.50
2017-12-02T08:11:55.492Z,22.70
2017-12-02T08:14:24.359Z,21.97
2017-12-02T08:16:53.799Z,22.43
2017-12-02T08:19:22.326Z,22.73
2017-12-02T08:21:51.607Z,22.30
2017-12-02T08:24:21.031Z,21.30
2017-12-02T08:26:49.557Z,23.10
2017-12-02T08:29:17.325Z,21.70
2017-12-02T08:31:44.997Z,20.83
2017-12-02T08:34:14.450Z,18.00
2017-12-02T08:36:42.183Z,19.90
2017-12-02T08:39:11.616Z,21.30
2017-12-02T08:41:41.168Z,21.07
2017-12-02T08:44:09.668Z,19.67
2017-12-02T08:46:37.375Z,19.30
2017-12-02T08:49:05.948Z,16.43
2017-12-02T08:51:35.248Z,21.03
2017-12-02T08:54:03.835Z,17.63
2017-12-02T08:56:32.311Z,20.50
2017-12-02T08:59:01.557Z,18.40
2017-12-02T09:01:31.080Z,18.90
2017-12-02T09:03:59.607Z,17.40
2017-12-02T09:06:28.085Z,16.80
2017-12-02T09:08:55.842Z,17.23
2017-12-02T09:11:24.335Z,17.93
2017-12-02T09:13:53.789Z,17.60
2017-12-02T09:16:21.593Z,17.80
2017-12-02T09:18:50.953Z,17.67
2017-12-02T09:21:20.358Z,19.27
2017-12-02T09:23:49.920Z,19.03
2017-12-02T09:26:20.253Z,17.87
2017-12-02T09:28:51.775Z,16.43
2017-12-02T09:31:19.604Z,17.43
2017-12-02T09:33:49.842Z,18.30
2017-12-02T09:36:19.269Z,18.90
2017-12-02T09:38:48.795Z,18.60
2017-12-02T09:41:18.414Z,18.90
2017-12-02T09:43:49.863Z,17.87
2017-12-02T09:46:18.326Z,18.77
2017-12-02T09:48:47.819Z,19.87
2017-12-02T09:51:16.785Z,16.20
2017-12-02T09:53:45.292Z,17.57
2017-12-02T09:56:14.852Z,16.10
2017-12-02T09:58:44.375Z,16.80
2017-12-02T10:01:12.941Z,17.07
2017-12-02T10:03:43.504Z,17.63
2017-12-02T10:06:12.009Z,16.63
2017-12-02T10:08:41.460Z,18.07
2017-12-02T10:11:09.468Z,15.53
2017-12-02T10:13:37.981Z,17.93
2017-12-02T10:16:05.739Z,15.67
2017-12-02T10:18:33.477Z,16.63
2017-12-02T10:21:02.075Z,17.87
2017-12-02T10:23:29.774Z,18.67
2017-12-02T10:25:58.344Z,17.70
2017-12-02T10:28:27.904Z,16.53
2017-12-02T10:30:57.637Z,17.50
2017-12-02T10:33:25.698Z,14.80
2017-12-02T10:35:54.214Z,17.07
2017-12-02T10:38:23.897Z,13.97
2017-12-02T10:40:53.237Z,13.70
2017-12-02T10:43:23.710Z,13.93
2017-12-02T10:45:56.175Z,11.50
2017-12-02T10:48:23.950Z,12.50
2017-12-02T10:50:53.502Z,14.97
2017-12-02T10:53:22.095Z,15.07
2017-12-02T10:55:50.515Z,16.50
2017-12-02T10:58:22.817Z,15.43
2017-12-02T11:00:52.352Z,15.53
2017-12-02T11:03:23.950Z,15.30
2017-12-02T11:05:53.751Z,16.33
2017-12-02T11:08:21.481Z,16.37
2017-12-02T11:10:50.924Z,14.00
2017-12-02T11:13:20.737Z,15.27
2017-12-02T11:15:50.343Z,16.83
2017-12-02T11:18:18.270Z,16.63
2017-12-02T11:20:50.309Z,14.90
2017-12-02T11:23:18.060Z,14.93
2017-12-02T11:25:45.796Z,14.00
2017-12-02T11:28:15.305Z,15.83
2017-12-02T11:30:43.785Z,14.23
2017-12-02T11:33:11.656Z,14.63
2017-12-02T11:35:39.423Z,16.75
2017-12-02T11:38:07.082Z,13.27
2017-12-02T11:40:34.759Z,11.80
2017-12-02T11:43:02.423Z,10.83
2017-12-02T11:45:30.100Z,13.00
2017-12-02T11:48:00.224Z,12.13
2017-12-02T11:50:30.077Z,12.00
2017-12-02T11:53:01.671Z,12.70
2017-12-02T11:55:31.630Z,20.07
2017-12-02T11:58:01.474Z,13.27
2017-12-02T12:00:29.366Z,12.83
2017-12-02T12:02:59.854Z,11.70
2017-12-02T12:05:27.679Z,12.33
2017-12-02T12:07:57.181Z,12.87
2017-12-02T12:10:24.900Z,12.50
2017-12-02T12:12:54.318Z,11.13
2017-12-02T12:15:22.180Z,12.50
2017-12-02T12:17:49.885Z,12.07
2017-12-02T12:20:20.039Z,12.70
2017-12-02T12:22:47.836Z,14.30
2017-12-02T12:25:15.508Z,13.47
2017-12-02T12:27:43.152Z,11.57
2017-12-02T12:30:10.819Z,12.40
2017-12-02T12:32:41.144Z,13.70
2017-12-02T12:35:09.110Z,12.60
2017-12-02T12:37:38.504Z,12.50
2017-12-02T12:40:07.071Z,13.00
2017-12-02T12:42:36.986Z,13.37
2017-12-02T12:45:06.236Z,12.80
2017-12-02T12:47:36.449Z,12.33
2017-12-02T12:50:05.809Z,13.03
2017-12-02T12:52:34.643Z,13.33
2017-12-02T12:55:04.078Z,12.40
2017-12-02T12:57:31.903Z,12.70
2017-12-02T13:00:01.392Z,13.47
2017-12-02T13:02:31.784Z,12.40
2017-12-02T13:04:59.504Z,13.60
2017-12-02T13:07:31.647Z,12.20
2017-12-02T13:10:03.745Z,13.00
2017-12-02T13:12:34.874Z,14.20
2017-12-02T13:15:02.535Z,15.50
2017-12-02T13:17:30.216Z,14.50
2017-12-02T13:19:57.962Z,13.80
2017-12-02T13:22:28.165Z,13.13
2017-12-02T13:24:56.599Z,13.30
2017-12-02T13:27:24.296Z,15.20
2017-12-02T13:29:53.729Z,14.20
2017-12-02T13:32:22.234Z,15.23
2017-12-02T13:34:51.533Z,14.00
2017-12-02T13:37:20.272Z,14.33
2017-12-02T13:39:47.949Z,14.30
2017-12-02T13:42:15.650Z,14.03
2017-12-02T13:44:43.335Z,14.70
2017-12-02T13:47:11.171Z,13.67
2017-12-02T13:49:41.038Z,14.33
2017-12-02T13:52:10.443Z,13.00
2017-12-02T13:54:39.765Z,13.97
2017-12-02T13:57:09.308Z,12.57
2017-12-02T13:59:37.727Z,12.10
2017-12-02T14:02:07.039Z,14.40
2017-12-02T14:04:36.587Z,12.20
2017-12-02T14:07:05.925Z,13.53
2017-12-02T14:09:34.547Z,14.70
2017-12-02T14:12:03.872Z,13.73
2017-12-02T14:14:33.096Z,13.23
2017-12-02T14:17:00.831Z,15.60
2017-12-02T14:19:31.940Z,15.27
2017-12-02T14:22:00.533Z,14.73
2017-12-02T14:24:28.550Z,13.93
2017-12-02T14:27:00.064Z,14.37
2017-12-02T14:29:29.678Z,14.37
2017-12-02T14:32:00.615Z,13.80
2017-12-02T14:34:32.304Z,13.80
2017-12-02T14:37:08.133Z,15.00
2017-12-02T14:39:40.643Z,15.00
2017-12-02T14:42:09.096Z,14.00
2017-12-02T14:44:38.575Z,14.70
2017-12-02T14:47:06.557Z,14.77
2017-12-02T14:49:36.633Z,16.30
2017-12-02T14:52:04.300Z,15.30
2017-12-02T14:54:32.226Z,18.40
2017-12-02T14:57:02.558Z,17.50
2017-12-02T14:59:31.034Z,15.20
2017-12-02T15:02:00.546Z,14.23
2017-12-02T15:04:30.375Z,15.03
2017-12-02T15:06:58.184Z,16.90
2017-12-02T15:09:28.194Z,15.17
2017-12-02T15:12:00.224Z,14.33
2017-12-02T15:14:29.590Z,15.73
2017-12-02T15:16:59.185Z,16.77
2017-12-02T15:19:27.716Z,15.60
2017-12-02T15:21:59.598Z,17.83
2017-12-02T15:24:29.565Z,18.43
2017-12-02T15:27:00.084Z,18.83
2017-12-02T15:29:28.609Z,16.97
2017-12-02T15:31:57.950Z,16.70
2017-12-02T15:34:28.053Z,18.87
2017-12-02T15:36:58.600Z,17.67
2017-12-02T15:39:26.271Z,18.90
2017-12-02T15:41:54.215Z,18.97
2017-12-02T15:44:23.515Z,18.50
2017-12-02T15:46:51.372Z,18.47
2017-12-02T15:49:22.680Z,17.30
2017-12-02T15:51:50.677Z,19.90
2017-12-02T15:54:19.309Z,20.67
2017-12-02T15:56:48.865Z,19.13
2017-12-02T15:59:18.731Z,20.47
2017-12-02T16:01:48.191Z,16.83
2017-12-02T16:04:15.941Z,18.67
2017-12-02T16:06:43.631Z,18.13
2017-12-02T16:09:13.102Z,17.67
2017-12-02T16:11:41.647Z,18.40
2017-12-02T16:14:09.326Z,18.73
2017-12-02T16:16:37.069Z,19.50
2017-12-02T16:19:04.836Z,19.43
2017-12-02T16:21:34.363Z,20.73
2017-12-02T16:24:02.103Z,18.70
2017-12-02T16:26:29.814Z,20.70
2017-12-02T16:28:57.519Z,17.00
2017-12-02T16:31:25.309Z,18.60
2017-12-02T16:33:53.822Z,19.77
2017-12-02T16:36:21.521Z,19.27
2017-12-02T16:38:49.368Z,19.20
2017-12-02T16:41:17.829Z,17.70
2017-12-02T16:43:47.084Z,17.27
2017-12-02T16:46:15.477Z,19.07
2017-12-02T16:48:43.216Z,17.50
2017-12-02T16:51:10.907Z,18.77
2017-12-02T16:53:38.576Z,20.37
2017-12-02T16:56:06.289Z,18.70
2017-12-02T16:58:34.156Z,18.50
2017-12-02T17:01:01.835Z,21.87
2017-12-02T17:03:29.560Z,21.37
2017-12-02T17:05:58.072Z,22.10
2017-12-02T17:08:28.083Z,20.40
2017-12-02T17:10:55.890Z,17.67
2017-12-02T17:13:25.392Z,18.83
2017-12-02T17:15:53.890Z,18.50
2017-12-02T17:18:21.811Z,17.03
2017-12-02T17:20:49.544Z,17.40
2017-12-02T17:23:17.261Z,17.17
2017-12-02T17:25:48.744Z,17.87
2017-12-02T17:28:19.878Z,16.80
2017-12-02T17:30:49.382Z,18.33
2017-12-02T17:33:17.165Z,19.27
2017-12-02T17:35:44.849Z,21.17
2017-12-02T17:38:13.588Z,20.50
2017-12-02T17:40:41.227Z,21.60
2017-12-02T17:43:11.560Z,25.17
2017-12-02T17:45:41.445Z,22.90
2017-12-02T17:48:09.518Z,20.23
2017-12-02T17:50:37.244Z,30.30
2017-12-02T17:53:05.048Z,34.67
2017-12-02T17:55:32.704Z,23.67
2017-12-02T17:58:00.394Z,26.15
2017-12-02T18:00:29.794Z,21.57
2017-12-02T18:02:57.519Z,20.93
2017-12-02T18:05:25.299Z,20.40
2017-12-02T18:07:57.880Z,24.40
2017-12-02T18:10:27.918Z,22.13
2017-12-02T18:12:55.617Z,21.37
2017-12-02T18:15:26.826Z,23.05
2017-12-02T18:17:54.538Z,25.83
2017-12-02T18:20:22.355Z,21.80
2017-12-02T18:22:50.105Z,23.35
2017-12-02T18:25:18.008Z,22.60
2017-12-02T18:27:45.703Z,23.40
2017-12-02T18:30:13.457Z,24.53
2017-12-02T18:32:41.184Z,21.90
2017-12-02T18:35:09.462Z,24.37
2017-12-02T18:37:37.222Z,22.65
2017-12-02T18:40:06.765Z,24.12
2017-12-02T18:42:35.244Z,25.83
2017-12-02T18:45:02.929Z,23.40
2017-12-02T18:47:30.916Z,27.02
2017-12-02T18:49:59.469Z,23.40
2017-12-02T18:52:27.320Z,21.83
2017-12-02T18:54:55.011Z,21.13
2017-12-02T18:57:22.672Z,23.52
2017-12-02T18:59:52.110Z,21.73
2017-12-02T19:02:19.890Z,20.80
2017-12-02T19:04:47.740Z,21.90
2017-12-02T19:07:15.480Z,21.97
2017-12-02T19:09:44.806Z,20.20
2017-12-02T19:12:12.593Z,22.13
2017-12-02T19:14:40.470Z,21.03
2017-12-02T19:17:09.154Z,21.80
2017-12-02T19:19:38.255Z,21.13
2017-12-02T19:22:07.672Z,21.23
2017-12-02T19:24:37.442Z,22.30
2017-12-02T19:27:11.928Z,21.07
2017-12-02T19:29:43.652Z,21.40
2017-12-02T19:32:13.217Z,21.67
2017-12-02T19:34:41.808Z,19.97
2017-12-02T19:37:11.272Z,20.27
2017-12-02T19:39:39.039Z,21.90
2017-12-02T19:42:07.062Z,21.50
2017-12-02T20:19:05.812Z,23.80
2017-12-02T20:21:35.441Z,20.50
2017-12-02T20:24:05.556Z,23.00
2017-12-02T20:26:35.057Z,21.83
2017-12-02T20:29:06.308Z,21.20
2017-12-02T20:31:37.125Z,20.70
2017-12-02T20:34:06.751Z,21.97
2017-12-02T20:36:35.349Z,20.40
2017-12-02T20:39:03.214Z,21.30
2017-12-02T20:41:30.951Z,20.70
2017-12-02T20:43:59.566Z,20.17
2017-12-02T20:46:27.640Z,19.57
2017-12-02T20:48:57.202Z,20.67
2017-12-02T20:51:26.133Z,20.47
2017-12-02T20:53:55.771Z,20.47
2017-12-02T20:56:25.423Z,21.23
2017-12-02T20:58:53.452Z,19.00
2017-12-02T21:01:22.997Z,19.87
2017-12-02T21:03:52.640Z,19.67
2017-12-02T21:06:20.865Z,21.50
2017-12-02T21:08:49.389Z,20.17
2017-12-02T21:11:17.298Z,19.83
2017-12-02T21:13:45.271Z,20.33
2017-12-02T21:16:15.049Z,20.77
2017-12-02T21:18:43.230Z,19.90
2017-12-02T21:21:11.045Z,21.67
2017-12-02T21:23:41.728Z,20.40
2017-12-02T21:26:12.489Z,20.17
2017-12-02T21:28:40.297Z,21.10
2017-12-02T21:31:08.139Z,20.03
2017-12-02T21:33:40.017Z,22.10
2017-12-02T21:36:07.993Z,19.70
2017-12-02T21:38:36.530Z,20.67
2017-12-02T21:41:04.392Z,18.17
2017-12-02T21:43:33.799Z,19.97
2017-12-02T21:46:02.507Z,17.30
2017-12-02T21:48:30.176Z,18.77
2017-12-02T21:50:58.057Z,17.83
2017-12-02T21:53:27.460Z,20.40
2017-12-02T21:55:55.428Z,19.93
2017-12-02T21:58:23.859Z,18.40
2017-12-02T22:00:55.722Z,20.87
2017-12-02T22:03:23.626Z,20.77
2017-12-02T22:05:52.061Z,18.57
2017-12-02T22:08:22.902Z,19.70
2017-12-02T22:10:50.861Z,19.77
2017-12-02T22:13:18.714Z,20.70
2017-12-02T22:15:49.042Z,20.90
2017-12-02T22:18:16.927Z,19.97
2017-12-02T22:20:44.615Z,21.10
2017-12-02T22:23:13.940Z,19.50
2017-12-02T22:25:41.697Z,19.47
2017-12-02T22:28:10.243Z,19.90
2017-12-02T22:30:38.034Z,20.10
2017-12-02T22:33:07.064Z,21.60
2017-12-02T22:35:35.599Z,20.40
2017-12-02T22:51:30.758Z,26.57
2017-12-02T22:53:58.616Z,21.27
2017-12-02T22:56:26.695Z,22.60
2017-12-02T22:58:54.405Z,20.83
2017-12-02T23:01:22.240Z,21.30
2017-12-02T23:03:50.008Z,22.13
2017-12-02T23:06:20.462Z,20.60
2017-12-02T23:08:51.301Z,21.73
2017-12-02T23:11:21.244Z,23.10
2017-12-02T23:13:49.053Z,22.80
2017-12-02T23:16:16.816Z,22.27
2017-12-02T23:18:44.598Z,24.03
2017-12-02T23:21:13.064Z,24.53
2017-12-02T23:23:40.738Z,23.80
2017-12-02T23:26:08.478Z,24.27
2017-12-02T23:28:38.812Z,22.27
2017-12-02T23:31:08.766Z,23.70
2017-12-02T23:33:39.292Z,22.97
2017-12-02T23:36:07.220Z,22.03
2017-12-02T23:38:38.827Z,21.37
2017-12-02T23:41:06.697Z,20.67
2017-12-02T23:43:34.490Z,20.97
2017-12-02T23:46:04.054Z,20.50
2017-12-02T23:48:33.670Z,22.17
2017-12-02T23:51:01.537Z,20.10
2017-12-02T23:53:32.535Z,19.60
2017-12-02T23:56:00.307Z,21.10
2017-12-02T23:58:28.255Z,22.20
